Hovedside
METAR-TAF:

METAR-TAF

Lufthavner :

Molde, Norge

Molde lufthavn

breddegrad: 62-45N, lengdegrad: 007-16E, høyde over havet: 0 m

Gjeldene værobservasjon

Denne rapporten ble laget for 22 minutter siden, klokken 04:20 UTC
Vind 5 kt fra Nord-nordøst
Temperatur 1°C
Luftfuktighet 80%
Trykk 1005 hPa
Sikt 10 km eller mer
Få skyer i en høyde av 2600 ft
Brutte skyer i en høyde av 5200 ft

METAR: ENML 250420Z 03005KT 9999 FEW026 BKN052 01/M02 Q1005

Tid: 06:42 (04:42 UTC)

Varsel

Denne rapporten ble laget for 11 timer og 42 minutter siden, klokken 17:00 UTC
Varsel gyldig fra 24. klokken 18 UTC til 24. klokken 22 UTC
Vind 8 kt fra Øst
Sikt 10 km eller mer
Få skyer i en høyde av 1200 ft
Brutte skyer i en høyde av 3000 ft
Sannsynlighet 30% :
Midlertidig
fra 24. klokken 18 UTC til 24. klokken 20 UTC
Sikt: 1500 m
Brutte skyer i en høyde av 700 ft
snø

TAF: ENML 241700Z 2418/2422 09008KT 9999 FEW012 BKN030 PROB30 TEMPO 2418/2420 1500 SN BKN007

Værobservasjoner og værvarsel for over 4000 flyplasser (METAR- og TAF-rapporter).

Tilgjengelige stasjoner er representert av de røde og gule prikkene på kartet.

Hold musepekeren over prikken for å se navnet på stasjonen.

Klikk så for å se værobservasjoner og -varsler.

For å forandre kartet kan du klikke på den grønne knappen med svart kryss for å zoome inn, på den grønne knappen med strek for å zoome ut, eller på de grønne pilene for å se tilstøtende kart.


METAR-TAF: